createdAt,value
2019-05-10T00:00:18.856Z,5.63
2019-05-10T00:05:41.926Z,6.10
2019-05-10T00:10:50.978Z,7.60
2019-05-10T00:15:56.619Z,7.03
2019-05-10T00:21:01.436Z,5.60
2019-05-10T00:26:06.027Z,8.40
2019-05-10T00:31:10.586Z,6.90
2019-05-10T00:36:15.159Z,6.23
2019-05-10T00:41:19.813Z,7.03
2019-05-10T00:46:24.553Z,5.77
2019-05-10T00:51:29.122Z,6.50
2019-05-10T00:56:33.693Z,4.87
2019-05-10T01:01:38.260Z,5.80
2019-05-10T01:06:42.822Z,4.70
2019-05-10T01:11:47.474Z,4.60
2019-05-10T01:16:52.038Z,4.90
2019-05-10T01:21:56.613Z,5.53
2019-05-10T01:27:02.175Z,4.93
2019-05-10T01:32:06.810Z,5.20
2019-05-10T01:37:11.640Z,5.23
2019-05-10T01:42:16.246Z,4.77
2019-05-10T01:47:20.872Z,4.30
2019-05-10T01:52:25.439Z,5.30
2019-05-10T01:57:30.334Z,4.70
2019-05-10T02:02:34.981Z,4.00
2019-05-10T02:07:39.559Z,4.23
2019-05-10T02:12:44.193Z,4.47
2019-05-10T02:17:49.284Z,3.80
2019-05-10T02:22:54.157Z,4.80
2019-05-10T02:27:58.756Z,4.60
2019-05-10T02:33:03.332Z,5.50
2019-05-10T02:38:08.192Z,4.13
2019-05-10T02:43:12.767Z,4.90
2019-05-10T02:48:17.363Z,3.83
2019-05-10T02:53:22.109Z,4.23
2019-05-10T02:58:27.201Z,4.27
2019-05-10T03:03:33.335Z,5.40
2019-05-10T03:08:48.479Z,6.13
2019-05-10T03:13:53.696Z,7.20
2019-05-10T03:18:59.413Z,7.30
2019-05-10T03:24:04.067Z,7.47
2019-05-10T03:29:08.602Z,8.07
2019-05-10T03:34:13.510Z,8.23
2019-05-10T03:39:18.081Z,9.60
2019-05-10T03:44:22.665Z,8.60
2019-05-10T03:49:27.242Z,9.47
2019-05-10T03:54:31.842Z,9.37
2019-05-10T03:59:36.390Z,8.50
2019-05-10T04:04:40.972Z,8.20
2019-05-10T04:09:45.540Z,8.07
2019-05-10T04:14:50.113Z,7.97
2019-05-10T04:19:54.683Z,8.57
2019-05-10T04:24:59.245Z,9.23
2019-05-10T04:30:04.091Z,8.87
2019-05-10T04:35:09.156Z,9.03
2019-05-10T04:40:14.236Z,10.10
2019-05-10T04:45:18.969Z,11.03
2019-05-10T04:50:23.544Z,11.10
2019-05-10T04:55:28.140Z,10.67
2019-05-10T05:00:32.799Z,11.00
2019-05-10T05:05:37.398Z,10.57
2019-05-10T05:10:42.276Z,9.30
2019-05-10T05:15:46.846Z,10.00
2019-05-10T05:20:51.546Z,10.67
2019-05-10T05:25:56.383Z,12.20
2019-05-10T05:31:00.942Z,10.30
2019-05-10T05:36:05.592Z,9.87
2019-05-10T05:41:10.425Z,11.03
2019-05-10T05:46:16.943Z,11.50
2019-05-10T05:51:21.540Z,13.00
2019-05-10T05:56:26.116Z,12.37
2019-05-10T06:01:30.843Z,11.23
2019-05-10T06:06:35.748Z,11.33
2019-05-10T06:11:40.343Z,12.50
2019-05-10T06:16:50.879Z,13.57
2019-05-10T06:21:51.229Z,12.53
2019-05-10T06:26:58.325Z,13.30
2019-05-10T06:32:02.332Z,13.47
2019-05-10T06:37:06.929Z,13.10
2019-05-10T06:42:11.922Z,13.00
2019-05-10T06:47:16.997Z,11.83
2019-05-10T06:52:27.029Z,11.73
2019-05-10T06:57:28.209Z,11.23
2019-05-10T07:02:32.870Z,11.87
2019-05-10T07:07:45.580Z,10.87
2019-05-10T07:12:45.480Z,11.17
2019-05-10T07:17:50.229Z,11.37
2019-05-10T07:23:00.127Z,10.13
2019-05-10T07:28:01.074Z,10.07
2019-05-10T07:33:07.138Z,9.60
2019-05-10T07:38:12.635Z,10.20
2019-05-10T07:43:24.653Z,9.20
2019-05-10T07:48:23.693Z,8.43
2019-05-10T07:53:29.292Z,9.30
2019-05-10T07:58:41.053Z,9.77
2019-05-10T08:03:44.357Z,9.63
2019-05-10T08:08:49.475Z,8.80
2019-05-10T08:13:57.920Z,9.97
2019-05-10T08:19:00.931Z,10.13
2019-05-10T08:24:13.344Z,9.80
2019-05-10T08:29:15.222Z,9.70
2019-05-10T08:34:18.994Z,9.43
2019-05-10T08:39:23.607Z,10.40
2019-05-10T08:44:28.665Z,11.37
2019-05-10T08:49:43.571Z,12.03
2019-05-10T08:54:42.139Z,11.07
2019-05-10T08:59:47.987Z,12.23
2019-05-10T09:04:53.008Z,12.63
2019-05-10T09:09:57.743Z,13.00
2019-05-10T09:15:06.584Z,13.43
2019-05-10T09:20:12.003Z,15.63
2019-05-10T09:25:20.217Z,14.70
2019-05-10T09:30:32.445Z,15.83
2019-05-10T09:35:39.129Z,12.63
2019-05-10T09:40:51.034Z,13.53
2019-05-10T09:45:49.785Z,13.63
2019-05-10T09:50:56.295Z,13.90
2019-05-10T09:56:03.157Z,13.90
2019-05-10T10:01:14.874Z,14.90
2019-05-10T10:06:14.297Z,15.33
2019-05-10T10:11:19.228Z,15.20
2019-05-10T10:16:23.797Z,15.67
2019-05-10T10:21:34.893Z,14.80
2019-05-10T10:26:34.642Z,14.80
2019-05-10T10:31:51.217Z,14.97
2019-05-10T10:36:47.553Z,15.10
2019-05-10T10:41:57.127Z,15.30
2019-05-10T10:47:09.627Z,15.37
2019-05-10T10:52:17.123Z,15.93
2019-05-10T10:57:21.755Z,14.73
2019-05-10T11:02:32.684Z,16.40
2019-05-10T11:07:35.376Z,16.17
2019-05-10T11:25:17.670Z,10.73
2019-05-10T11:30:32.491Z,8.37
2019-05-10T11:36:04.117Z,6.77
2019-05-10T11:41:28.096Z,7.80
2019-05-10T11:46:32.761Z,8.47
2019-05-10T11:51:37.334Z,8.60
2019-05-10T11:56:41.934Z,9.00
2019-05-10T12:01:54.821Z,9.17
2019-05-10T12:06:52.711Z,7.63
2019-05-10T12:11:57.264Z,7.50
2019-05-10T12:17:06.334Z,7.63
2019-05-10T12:22:15.483Z,8.13
2019-05-10T12:27:25.267Z,7.90
2019-05-10T12:32:26.985Z,6.87
2019-05-10T12:37:30.856Z,5.90
2019-05-10T12:42:35.592Z,7.17
2019-05-10T12:47:41.467Z,7.50
2019-05-10T12:52:53.088Z,7.97
2019-05-10T12:57:52.956Z,6.23
2019-05-10T13:03:11.673Z,6.13
2019-05-10T13:08:04.373Z,5.20
2019-05-10T13:13:09.094Z,4.20
2019-05-10T13:18:13.637Z,3.50
2019-05-10T13:23:19.028Z,3.80
2019-05-10T13:28:23.594Z,3.83
2019-05-10T13:33:29.516Z,4.00
2019-05-10T13:38:37.017Z,4.40
2019-05-10T13:43:40.646Z,4.10
2019-05-10T13:48:46.004Z,3.90
2019-05-10T13:53:53.888Z,3.23
2019-05-10T13:58:58.189Z,2.80
2019-05-10T14:04:03.554Z,2.90
2019-05-10T14:09:08.519Z,2.73
2019-05-10T14:14:20.242Z,3.10
2019-05-10T14:19:23.116Z,2.80
2019-05-10T14:24:27.541Z,2.97
2019-05-10T14:29:34.361Z,2.87
2019-05-10T14:34:43.919Z,3.17
2019-05-10T14:39:45.683Z,2.90
2019-05-10T14:44:50.597Z,2.60
2019-05-10T14:50:00.188Z,3.20
2019-05-10T14:55:05.575Z,3.10
2019-05-10T15:00:10.841Z,3.40
2019-05-10T15:05:18.023Z,3.37
2019-05-10T15:10:24.372Z,2.73
2019-05-10T15:15:30.960Z,2.27
2019-05-10T15:20:39.085Z,2.63
2019-05-10T15:25:56.664Z,3.40
2019-05-10T15:30:52.616Z,2.70
2019-05-10T15:35:59.675Z,1.27
2019-05-10T15:41:04.412Z,0.90
2019-05-10T15:46:09.071Z,0.60
2019-05-10T15:51:16.797Z,1.10
2019-05-10T15:56:20.737Z,1.03
2019-05-10T16:01:26.905Z,1.40
2019-05-10T16:06:37.372Z,1.53
2019-05-10T16:11:38.959Z,2.17
2019-05-10T16:16:45.592Z,2.40
2019-05-10T16:21:52.029Z,2.17
2019-05-10T16:27:00.156Z,2.60
2019-05-10T16:32:03.147Z,2.63
2019-05-10T16:37:08.158Z,2.70
2019-05-10T16:42:13.093Z,2.37
2019-05-10T16:47:17.664Z,2.50
2019-05-10T16:52:26.017Z,1.80
2019-05-10T16:57:32.122Z,1.80
2019-05-10T17:02:36.692Z,2.10
2019-05-10T17:07:41.337Z,2.27
2019-05-10T17:12:46.364Z,2.20
2019-05-10T17:17:50.960Z,2.03
2019-05-10T17:23:07.641Z,2.23
2019-05-10T17:28:01.817Z,2.00
2019-05-10T17:33:06.495Z,2.30
2019-05-10T17:38:16.286Z,2.53
2019-05-10T17:43:22.748Z,2.27
2019-05-10T17:48:27.302Z,2.40
2019-05-10T17:53:31.874Z,2.43
2019-05-10T17:58:36.477Z,2.50
2019-05-10T18:03:41.048Z,2.63
2019-05-10T18:08:45.696Z,2.60
2019-05-10T18:13:50.551Z,2.27
2019-05-10T18:18:55.095Z,2.20
2019-05-10T18:23:59.852Z,2.53
2019-05-10T18:29:04.512Z,2.50
2019-05-10T18:34:09.093Z,2.60
2019-05-10T18:39:15.559Z,2.73
2019-05-10T18:44:20.029Z,3.43
2019-05-10T18:49:24.610Z,4.43
2019-05-10T18:54:30.239Z,3.80
2019-05-10T18:59:39.750Z,3.70
2019-05-10T19:04:45.683Z,3.90
2019-05-10T19:09:48.092Z,4.47
2019-05-10T19:14:52.715Z,3.40
2019-05-10T19:19:57.287Z,3.33
2019-05-10T19:25:10.167Z,2.90
2019-05-10T19:30:08.571Z,2.93
2019-05-10T19:35:13.980Z,2.63
2019-05-10T19:40:18.685Z,2.30
2019-05-10T19:45:23.264Z,2.13
2019-05-10T19:50:30.779Z,2.00
2019-05-10T19:55:34.100Z,2.20
2019-05-10T20:00:38.833Z,2.10
2019-05-10T20:05:43.394Z,2.30
2019-05-10T20:10:48.198Z,3.70
2019-05-10T20:15:52.838Z,3.23
2019-05-10T20:20:57.625Z,2.50
2019-05-10T20:26:24.513Z,2.70
2019-05-10T20:31:30.734Z,2.93
2019-05-10T20:36:36.756Z,3.13
2019-05-10T20:41:41.704Z,2.60
2019-05-10T20:46:46.278Z,3.00
2019-05-10T20:51:51.179Z,2.97
2019-05-10T20:56:55.759Z,5.50
2019-05-10T21:02:00.325Z,7.07
2019-05-10T21:07:04.966Z,5.87
2019-05-10T21:12:09.595Z,4.80
2019-05-10T21:17:14.237Z,5.43
2019-05-10T21:22:18.861Z,7.73
2019-05-10T21:27:23.458Z,7.13
2019-05-10T21:32:28.045Z,4.90
2019-05-10T21:37:32.587Z,6.47
2019-05-10T21:42:37.148Z,5.77
2019-05-10T21:47:51.059Z,5.13
2019-05-10T21:52:48.157Z,5.80
2019-05-10T21:57:53.957Z,5.13
2019-05-10T22:02:58.523Z,5.13
2019-05-10T22:08:03.324Z,4.87
2019-05-10T22:13:08.105Z,4.43
2019-05-10T22:18:12.976Z,5.43
2019-05-10T22:23:17.543Z,4.37
2019-05-10T22:28:22.340Z,5.07
2019-05-10T22:33:26.974Z,5.23
2019-05-10T22:38:31.756Z,4.90
2019-05-10T22:43:36.324Z,4.80
2019-05-10T22:48:40.871Z,4.63
2019-05-10T22:53:53.233Z,4.57
2019-05-10T22:58:51.956Z,4.17
2019-05-10T23:03:57.012Z,4.50
2019-05-10T23:09:01.589Z,6.80
2019-05-10T23:14:06.924Z,6.60
2019-05-10T23:19:11.499Z,5.10
2019-05-10T23:24:17.377Z,5.80
2019-05-10T23:29:21.940Z,5.40
2019-05-10T23:34:26.504Z,5.67
2019-05-10T23:39:40.117Z,5.53
2019-05-10T23:44:37.636Z,5.47
2019-05-10T23:49:42.192Z,6.10
2019-05-10T23:54:46.775Z,6.40
2019-05-10T23:59:51.340Z,7.30
